Time;durP1;ratioP1;P1;durP2;ratioP2;P2;SDS_P1;SDS_P2;PMS_P1;PMS_P2;Temp;Humidity;BMP_temperature;BMP_pressure;BME280_temperature;BME280_humidity;BME280_pressure;Samples;Min_cycle;Max_cycle;Signal;HPM_P1;HPM_P2
2023/06/20 00:01:33;;;;;;;19.60;14.00;;;;;;;;;;109609;1251;58881;-80
2023/06/20 00:04:00;;;;;;;17.70;12.90;;;;;;;;;;107439;1251;61400;-79
2023/06/20 00:06:26;;;;;;;18.50;13.90;;;;;;;;;;108227;1250;61151;-80
2023/06/20 00:08:52;;;;;;;17.40;13.70;;;;;;;;;;109687;1251;58967;-80
2023/06/20 00:11:19;;;;;;;22.50;15.50;;;;;;;;;;109661;1254;58839;-81
2023/06/20 00:13:45;;;;;;;20.30;14.30;;;;;;;;;;107333;1254;60774;-79
2023/06/20 00:16:11;;;;;;;18.50;13.90;;;;;;;;;;107089;1255;61310;-81
2023/06/20 00:18:38;;;;;;;18.10;14.00;;;;;;;;;;107089;1251;61313;-80
2023/06/20 00:21:04;;;;;;;20.70;14.50;;;;;;;;;;107201;1251;61260;-79
2023/06/20 00:23:30;;;;;;;18.60;14.40;;;;;;;;;;106964;1253;61139;-81
2023/06/20 00:25:57;;;;;;;18.00;13.90;;;;;;;;;;107031;1255;61331;-80
2023/06/20 00:28:23;;;;;;;22.40;15.40;;;;;;;;;;107030;1253;61276;-81
2023/06/20 00:30:50;;;;;;;20.40;14.90;;;;;;;;;;107505;1252;61232;-80
2023/06/20 00:33:19;;;;;;;19.20;14.10;;;;;;;;;;109342;1251;59054;-80
2023/06/20 00:35:46;;;;;;;19.40;13.90;;;;;;;;;;107520;1252;60259;-80
2023/06/20 00:38:12;;;;;;;18.90;14.70;;;;;;;;;;109483;1252;58863;-80
2023/06/20 00:40:39;;;;;;;19.20;14.20;;;;;;;;;;109485;1251;58877;-80
2023/06/20 00:43:05;;;;;;;20.00;15.80;;;;;;;;;;109523;1253;58821;-80
2023/06/20 00:45:32;;;;;;;20.60;15.20;;;;;;;;;;109490;1253;58949;-81
2023/06/20 00:48:02;;;;;;;19.80;14.20;;;;;;;;;;109504;1251;58998;-81
2023/06/20 00:50:29;;;;;;;21.00;14.70;;;;;;;;;;109687;1251;60668;-80
2023/06/20 00:53:05;;;;;;;18.60;14.50;;;;;;;;;;107424;1251;61259;-81
2023/06/20 00:55:33;;;;;;;22.10;14.90;;;;;;;;;;107156;1251;61132;-79
2023/06/20 00:58:00;;;;;;;20.90;15.90;;;;;;;;;;107072;1251;61923;-79
2023/06/20 01:00:27;;;;;;;20.80;14.80;;;;;;;;;;109691;1251;59145;-79
2023/06/20 01:02:57;;;;;;;20.40;15.30;;;;;;;;;;109663;1251;59208;-82
2023/06/20 01:05:27;;;;;;;20.40;14.80;;;;;;;;;;107628;1252;61765;-81
2023/06/20 01:08:12;;;;;;;18.90;13.80;;;;;;;;;;107062;1251;61221;-80
2023/06/20 01:10:47;;;;;;;19.30;15.20;;;;;;;;;;108195;1251;61907;-78
2023/06/20 01:13:18;;;;;;;19.00;14.30;;;;;;;;;;108581;1250;59095;-80
2023/06/20 01:15:51;;;;;;;19.10;14.50;;;;;;;;;;106584;1253;61268;-80
2023/06/20 01:18:25;;;;;;;18.00;13.70;;;;;;;;;;106531;1255;59180;-80
2023/06/20 01:20:56;;;;;;;19.10;14.00;;;;;;;;;;106553;1255;61625;-79
2023/06/20 01:23:29;;;;;;;19.10;14.70;;;;;;;;;;106435;1255;62063;-80
2023/06/20 01:25:56;;;;;;;19.80;13.80;;;;;;;;;;109431;1252;59343;-80
2023/06/20 01:28:41;;;;;;;16.70;12.80;;;;;;;;;;109502;1252;59395;-79
2023/06/20 01:31:09;;;;;;;19.00;14.60;;;;;;;;;;109500;1251;59160;-81
2023/06/20 01:33:38;;;;;;;19.60;13.30;;;;;;;;;;109466;1252;59031;-80
2023/06/20 01:36:04;;;;;;;;;;;;;;;;;;109492;1253;61789;-81
2023/06/20 01:38:31;;;;;;;17.20;12.30;;;;;;;;;;109456;1254;59148;-79
2023/06/20 01:40:57;;;;;;;21.80;13.80;;;;;;;;;;106509;1255;61234;-79
2023/06/20 01:43:23;;;;;;;17.70;13.10;;;;;;;;;;106394;1255;63453;-78
2023/06/20 01:45:50;;;;;;;17.50;13.20;;;;;;;;;;106431;1255;61228;-80
2023/06/20 01:48:17;;;;;;;19.30;14.30;;;;;;;;;;106503;1257;61219;-79
2023/06/20 01:50:44;;;;;;;16.20;13.30;;;;;;;;;;106553;1256;61364;-79
2023/06/20 01:53:10;;;;;;;18.90;13.70;;;;;;;;;;106486;1251;61322;-78
2023/06/20 01:55:36;;;;;;;20.00;13.10;;;;;;;;;;107091;1251;61301;-80
2023/06/20 01:58:03;;;;;;;15.20;13.30;;;;;;;;;;106514;1257;61208;-80
2023/06/20 02:00:29;;;;;;;18.40;13.90;;;;;;;;;;106519;1254;61268;-80
2023/06/20 02:02:56;;;;;;;17.60;13.50;;;;;;;;;;106514;1256;61265;-78
2023/06/20 02:05:23;;;;;;;17.70;14.10;;;;;;;;;;106526;1251;61339;-79
2023/06/20 02:07:51;;;;;;;20.30;14.50;;;;;;;;;;107129;1257;61124;-79
2023/06/20 02:10:21;;;;;;;17.00;13.10;;;;;;;;;;107164;1253;61169;-78
2023/06/20 02:12:47;;;;;;;25.10;15.00;;;;;;;;;;107100;1252;61330;-81
2023/06/20 02:15:14;;;;;;;19.00;14.00;;;;;;;;;;107128;1255;61358;-79
2023/06/20 02:17:40;;;;;;;19.20;14.20;;;;;;;;;;107117;1252;61281;-79
2023/06/20 02:26:51;;;;;;;18.80;12.60;;;;;;;;;;106903;1260;63569;-81
2023/06/20 02:29:17;;;;;;;16.40;13.40;;;;;;;;;;106923;1257;61321;-79
2023/06/20 02:31:45;;;;;;;17.60;13.80;;;;;;;;;;106818;1257;61711;-79
2023/06/20 02:34:13;;;;;;;20.70;14.40;;;;;;;;;;107000;1257;61212;-80
2023/06/20 02:36:40;;;;;;;22.30;14.10;;;;;;;;;;106965;1257;59004;-79
2023/06/20 02:39:07;;;;;;;20.80;15.20;;;;;;;;;;107014;1255;61891;-79
2023/06/20 02:41:33;;;;;;;19.00;13.60;;;;;;;;;;106992;1255;61097;-79
2023/06/20 02:43:59;;;;;;;17.60;13.40;;;;;;;;;;106971;1254;59300;-81
2023/06/20 02:46:32;;;;;;;17.20;13.40;;;;;;;;;;106968;1254;61292;-80
2023/06/20 02:49:11;;;;;;;18.90;14.40;;;;;;;;;;107041;1257;61122;-79
2023/06/20 02:51:39;;;;;;;16.30;13.40;;;;;;;;;;107170;1256;61980;-80
2023/06/20 02:54:07;;;;;;;20.30;15.10;;;;;;;;;;107042;1251;61336;-79
2023/06/20 02:56:34;;;;;;;19.20;13.40;;;;;;;;;;107155;1257;61269;-80
2023/06/20 02:59:00;;;;;;;20.80;14.30;;;;;;;;;;107020;1252;61339;-81
2023/06/20 03:01:27;;;;;;;18.30;14.00;;;;;;;;;;107061;1251;62268;-79
2023/06/20 03:03:54;;;;;;;19.30;14.60;;;;;;;;;;107051;1255;63198;-80
2023/06/20 03:06:26;;;;;;;17.40;13.40;;;;;;;;;;107100;1251;61096;-80
2023/06/20 03:08:53;;;;;;;16.90;13.40;;;;;;;;;;107079;1264;61666;-79
2023/06/20 03:11:20;;;;;;;19.80;14.60;;;;;;;;;;107045;1252;61141;-81
2023/06/20 03:13:46;;;;;;;24.00;16.10;;;;;;;;;;107097;1254;61205;-79
2023/06/20 03:16:13;;;;;;;17.20;13.40;;;;;;;;;;107139;1251;62394;-79
2023/06/20 03:18:39;;;;;;;18.30;13.50;;;;;;;;;;107088;1251;61304;-79
2023/06/20 03:21:06;;;;;;;16.00;12.60;;;;;;;;;;107094;1254;61349;-80
2023/06/20 03:23:32;;;;;;;16.20;12.70;;;;;;;;;;106977;1256;61366;-81
2023/06/20 03:25:59;;;;;;;22.40;14.10;;;;;;;;;;106523;1257;61312;-79
2023/06/20 03:28:25;;;;;;;17.50;13.30;;;;;;;;;;106377;1257;61339;-79
2023/06/20 03:30:52;;;;;;;17.60;13.60;;;;;;;;;;106396;1256;61201;-79
2023/06/20 03:33:18;;;;;;;19.70;12.50;;;;;;;;;;106994;1256;61265;-78
2023/06/20 03:35:44;;;;;;;19.80;13.50;;;;;;;;;;107030;1254;61385;-80
2023/06/20 03:38:12;;;;;;;18.80;13.50;;;;;;;;;;106964;1254;61733;-79
2023/06/20 03:40:38;;;;;;;21.00;14.50;;;;;;;;;;106979;1252;61919;-81
2023/06/20 03:43:04;;;;;;;18.70;13.70;;;;;;;;;;107020;1256;61150;-80
2023/06/20 03:45:31;;;;;;;20.40;14.60;;;;;;;;;;106996;1255;61269;-81
2023/06/20 03:47:57;;;;;;;20.20;13.80;;;;;;;;;;107001;1256;59275;-80
2023/06/20 03:50:24;;;;;;;16.20;13.50;;;;;;;;;;106987;1256;61238;-79
2023/06/20 03:52:50;;;;;;;19.00;13.50;;;;;;;;;;106936;1254;62419;-79
2023/06/20 03:55:17;;;;;;;20.80;14.00;;;;;;;;;;106974;1255;61350;-80
2023/06/20 03:57:43;;;;;;;21.30;13.90;;;;;;;;;;106957;1254;61363;-80
2023/06/20 04:00:12;;;;;;;19.60;12.00;;;;;;;;;;107033;1254;59469;-79
2023/06/20 04:02:42;;;;;;;19.70;16.00;;;;;;;;;;106943;1257;61139;-81
2023/06/20 04:05:09;;;;;;;18.70;12.90;;;;;;;;;;106415;1257;62579;-80
2023/06/20 04:07:35;;;;;;;19.30;14.00;;;;;;;;;;106466;1255;61151;-79
2023/06/20 04:10:02;;;;;;;17.00;13.30;;;;;;;;;;106990;1253;63271;-79
2023/06/20 04:12:28;;;;;;;18.10;14.10;;;;;;;;;;107023;1257;61841;-81
2023/06/20 04:14:55;;;;;;;17.20;13.20;;;;;;;;;;107024;1254;59548;-80
2023/06/20 04:17:21;;;;;;;17.70;13.10;;;;;;;;;;107040;1252;61202;-81
2023/06/20 04:19:47;;;;;;;21.40;14.00;;;;;;;;;;107018;1255;61221;-79
2023/06/20 04:22:14;;;;;;;19.40;13.10;;;;;;;;;;106951;1251;61330;-81
2023/06/20 04:24:41;;;;;;;16.80;13.20;;;;;;;;;;107011;1256;61251;-79
2023/06/20 04:27:07;;;;;;;18.00;12.90;;;;;;;;;;107011;1255;61243;-81
2023/06/20 04:29:33;;;;;;;19.30;12.80;;;;;;;;;;107022;1252;61246;-81
2023/06/20 04:32:00;;;;;;;20.60;13.30;;;;;;;;;;106454;1256;61247;-80
2023/06/20 04:34:27;;;;;;;20.00;13.00;;;;;;;;;;106432;1255;61251;-81
2023/06/20 04:36:53;;;;;;;19.30;13.60;;;;;;;;;;106418;1254;61331;-81
2023/06/20 04:39:20;;;;;;;18.40;13.20;;;;;;;;;;106481;1256;61217;-80
2023/06/20 04:41:46;;;;;;;16.60;13.10;;;;;;;;;;107028;1256;61384;-81
2023/06/20 04:44:13;;;;;;;15.20;12.20;;;;;;;;;;106984;1254;61110;-81
2023/06/20 04:46:39;;;;;;;15.90;12.40;;;;;;;;;;107082;1254;61309;-82
2023/06/20 04:49:05;;;;;;;13.90;11.80;;;;;;;;;;107088;1251;61134;-81
2023/06/20 04:51:32;;;;;;;15.10;11.40;;;;;;;;;;106589;1258;61333;-79
2023/06/20 04:53:58;;;;;;;16.00;12.40;;;;;;;;;;106555;1258;61330;-81
2023/06/20 04:56:25;;;;;;;19.10;12.90;;;;;;;;;;106492;1254;61344;-81
2023/06/20 04:58:51;;;;;;;15.10;11.80;;;;;;;;;;106496;1251;60956;-79
2023/06/20 05:01:17;;;;;;;15.40;12.30;;;;;;;;;;107107;1251;61344;-81
2023/06/20 05:03:44;;;;;;;16.70;11.20;;;;;;;;;;107019;1254;61160;-81
2023/06/20 05:06:16;;;;;;;13.60;12.00;;;;;;;;;;106994;1256;60987;-79
2023/06/20 05:08:44;;;;;;;15.50;11.10;;;;;;;;;;107080;1257;61138;-82
2023/06/20 05:11:11;;;;;;;14.20;11.60;;;;;;;;;;107097;1254;60971;-80
2023/06/20 05:13:38;;;;;;;14.50;11.60;;;;;;;;;;106561;1256;61359;-79
2023/06/20 05:16:04;;;;;;;16.10;11.10;;;;;;;;;;106536;1253;61259;-80
2023/06/20 05:18:31;;;;;;;19.50;11.90;;;;;;;;;;106504;1253;61944;-79
2023/06/20 05:20:57;;;;;;;17.10;11.80;;;;;;;;;;106491;1253;61293;-78
2023/06/20 05:23:24;;;;;;;16.80;11.60;;;;;;;;;;106386;1255;61337;-80
2023/06/20 05:25:50;;;;;;;14.80;10.10;;;;;;;;;;106389;1254;61240;-78
2023/06/20 05:28:16;;;;;;;16.60;12.00;;;;;;;;;;106533;1254;61349;-78
2023/06/20 05:30:43;;;;;;;15.30;12.20;;;;;;;;;;106297;1253;61269;-78
2023/06/20 05:33:09;;;;;;;18.30;11.60;;;;;;;;;;106457;1254;61264;-80
2023/06/20 05:35:36;;;;;;;16.10;11.40;;;;;;;;;;106426;1253;61846;-79
2023/06/20 05:38:03;;;;;;;15.90;11.30;;;;;;;;;;106310;1257;61336;-80
2023/06/20 05:40:30;;;;;;;14.00;11.30;;;;;;;;;;106267;1257;61242;-78
2023/06/20 05:42:56;;;;;;;20.40;13.50;;;;;;;;;;106256;1256;61238;-80
2023/06/20 05:45:23;;;;;;;17.70;13.30;;;;;;;;;;106537;1254;61269;-79
2023/06/20 05:47:49;;;;;;;20.80;14.60;;;;;;;;;;107106;1254;59436;-79
2023/06/20 05:50:16;;;;;;;15.00;11.80;;;;;;;;;;107092;1253;61069;-78
2023/06/20 05:52:42;;;;;;;16.10;11.00;;;;;;;;;;107300;1251;61362;-80
2023/06/20 05:55:09;;;;;;;18.30;11.10;;;;;;;;;;106614;1254;61251;-80
2023/06/20 05:57:37;;;;;;;15.30;10.60;;;;;;;;;;106520;1256;61306;-81
2023/06/20 06:00:12;;;;;;;18.30;12.00;;;;;;;;;;106750;1254;61171;-78
2023/06/20 06:02:44;;;;;;;26.40;17.30;;;;;;;;;;107418;1254;61150;-80
2023/06/20 06:05:11;;;;;;;13.10;9.90;;;;;;;;;;107532;1254;61221;-81
2023/06/20 06:07:38;;;;;;;15.40;10.70;;;;;;;;;;107324;1251;61763;-79
2023/06/20 06:10:07;;;;;;;15.60;10.60;;;;;;;;;;107425;1254;60338;-79
2023/06/20 06:12:35;;;;;;;13.10;9.60;;;;;;;;;;107422;1254;61249;-79
2023/06/20 06:15:01;;;;;;;14.00;10.80;;;;;;;;;;107351;1255;61251;-81
2023/06/20 06:17:30;;;;;;;15.40;10.40;;;;;;;;;;106614;1251;61386;-78
2023/06/20 06:19:57;;;;;;;12.90;10.00;;;;;;;;;;106699;1254;62888;-81
2023/06/20 06:22:23;;;;;;;12.10;10.20;;;;;;;;;;106627;1254;62036;-81
2023/06/20 06:24:50;;;;;;;12.80;10.10;;;;;;;;;;106694;1255;61205;-81
2023/06/20 06:27:17;;;;;;;13.70;9.70;;;;;;;;;;106575;1254;61323;-79
2023/06/20 06:29:44;;;;;;;16.60;9.40;;;;;;;;;;107225;1251;61219;-79
2023/06/20 06:32:11;;;;;;;11.40;9.70;;;;;;;;;;107413;1256;62994;-81
2023/06/20 06:34:37;;;;;;;14.10;9.40;;;;;;;;;;107275;1250;61262;-81
2023/06/20 06:37:04;;;;;;;13.10;8.90;;;;;;;;;;107196;1251;61435;-82
2023/06/20 06:39:30;;;;;;;15.70;9.10;;;;;;;;;;106380;1254;61258;-81
2023/06/20 06:41:57;;;;;;;15.80;8.40;;;;;;;;;;106568;1251;59177;-81
2023/06/20 06:44:23;;;;;;;14.00;9.30;;;;;;;;;;106591;1254;61264;-79
2023/06/20 06:46:50;;;;;;;11.10;8.60;;;;;;;;;;107310;1254;61405;-78
2023/06/20 06:49:17;;;;;;;15.70;9.70;;;;;;;;;;107201;1255;61308;-79
2023/06/20 06:51:43;;;;;;;11.00;9.30;;;;;;;;;;107330;1254;61260;-82
2023/06/20 06:54:09;;;;;;;10.30;7.90;;;;;;;;;;107348;1254;61356;-82
2023/06/20 06:56:36;;;;;;;13.20;8.50;;;;;;;;;;107327;1251;61253;-82
2023/06/20 06:59:02;;;;;;;12.70;9.00;;;;;;;;;;107193;1254;61340;-79
2023/06/20 07:01:29;;;;;;;12.40;8.60;;;;;;;;;;107230;1254;61282;-81
2023/06/20 07:03:55;;;;;;;9.90;7.60;;;;;;;;;;107061;1253;59771;-79
2023/06/20 07:06:22;;;;;;;15.10;8.50;;;;;;;;;;107131;1253;61230;-79
2023/06/20 07:08:48;;;;;;;12.00;8.00;;;;;;;;;;107073;1253;159781;-81
2023/06/20 07:11:16;;;;;;;10.10;7.30;;;;;;;;;;107285;1251;61236;-81
2023/06/20 07:13:43;;;;;;;9.90;7.00;;;;;;;;;;107311;1251;61225;-81
2023/06/20 07:16:09;;;;;;;11.90;7.20;;;;;;;;;;107337;1251;61224;-82
2023/06/20 07:18:36;;;;;;;10.60;7.80;;;;;;;;;;107144;1251;61068;-79
2023/06/20 07:21:03;;;;;;;8.50;7.30;;;;;;;;;;107268;1252;61338;-81
2023/06/20 07:23:29;;;;;;;9.00;7.90;;;;;;;;;;107276;1251;61353;-78
2023/06/20 07:25:55;;;;;;;8.10;6.90;;;;;;;;;;107323;1254;61355;-79
2023/06/20 07:28:23;;;;;;;12.00;7.50;;;;;;;;;;107208;1252;61215;-79
2023/06/20 07:30:49;;;;;;;11.40;6.70;;;;;;;;;;107203;1255;61162;-81
2023/06/20 07:33:16;;;;;;;11.20;7.40;;;;;;;;;;107299;1251;61267;-79
2023/06/20 07:35:42;;;;;;;13.30;7.70;;;;;;;;;;107399;1251;61251;-79
2023/06/20 07:38:08;;;;;;;9.00;7.60;;;;;;;;;;107201;1254;61315;-82
2023/06/20 07:40:35;;;;;;;8.50;7.50;;;;;;;;;;107293;1251;61157;-81
2023/06/20 07:43:01;;;;;;;8.50;7.10;;;;;;;;;;107336;1252;61332;-79
2023/06/20 07:45:28;;;;;;;17.50;9.90;;;;;;;;;;107211;1251;62292;-81
2023/06/20 07:47:54;;;;;;;9.30;7.40;;;;;;;;;;107304;1253;60912;-79
2023/06/20 07:50:20;;;;;;;8.90;7.10;;;;;;;;;;107204;1253;61197;-79
2023/06/20 07:52:47;;;;;;;12.10;7.90;;;;;;;;;;107154;1252;61355;-82
2023/06/20 07:55:13;;;;;;;12.40;8.10;;;;;;;;;;107364;1250;61164;-80
2023/06/20 07:57:40;;;;;;;9.80;6.60;;;;;;;;;;107208;1252;59175;-79
2023/06/20 08:00:11;;;;;;;7.80;7.00;;;;;;;;;;107191;1253;61263;-80
2023/06/20 08:02:38;;;;;;;8.40;6.80;;;;;;;;;;107222;1256;61256;-81
2023/06/20 08:05:04;;;;;;;9.30;6.50;;;;;;;;;;107306;1253;61205;-79
2023/06/20 08:07:31;;;;;;;9.20;6.70;;;;;;;;;;107195;1251;61269;-81
2023/06/20 08:09:57;;;;;;;11.10;7.20;;;;;;;;;;107200;1250;61132;-79
2023/06/20 08:12:23;;;;;;;9.60;5.80;;;;;;;;;;107238;1252;61136;-79
2023/06/20 08:14:50;;;;;;;8.00;6.60;;;;;;;;;;107199;1252;61153;-80
2023/06/20 08:17:16;;;;;;;7.80;5.80;;;;;;;;;;107263;1253;61237;-82
2023/06/20 08:19:43;;;;;;;8.00;5.80;;;;;;;;;;107180;1253;61248;-82
2023/06/20 08:22:09;;;;;;;9.10;5.20;;;;;;;;;;107168;1251;61761;-79
2023/06/20 08:24:36;;;;;;;6.30;5.60;;;;;;;;;;107264;1251;61223;-80
2023/06/20 08:27:04;;;;;;;5.80;5.10;;;;;;;;;;107242;1253;61341;-82
2023/06/20 08:29:30;;;;;;;11.40;6.50;;;;;;;;;;107230;1251;61279;-82
2023/06/20 08:31:57;;;;;;;7.70;5.30;;;;;;;;;;107247;1251;61078;-82
2023/06/20 08:34:23;;;;;;;6.70;5.60;;;;;;;;;;107121;1254;61321;-82
2023/06/20 08:36:50;;;;;;;6.60;5.80;;;;;;;;;;107194;1256;61307;-82
2023/06/20 08:39:18;;;;;;;6.30;5.20;;;;;;;;;;107166;1251;61370;-80
2023/06/20 08:41:45;;;;;;;5.80;5.10;;;;;;;;;;107251;1251;61227;-79
2023/06/20 08:44:11;;;;;;;6.90;5.70;;;;;;;;;;107166;1253;59419;-80
2023/06/20 08:46:37;;;;;;;6.60;5.40;;;;;;;;;;107273;1251;61487;-82
2023/06/20 08:49:04;;;;;;;6.70;5.60;;;;;;;;;;107210;1253;61029;-82
2023/06/20 08:51:30;;;;;;;5.60;5.00;;;;;;;;;;107315;1251;61270;-80
2023/06/20 08:53:57;;;;;;;5.60;5.00;;;;;;;;;;107173;1253;61308;-83
2023/06/20 08:56:23;;;;;;;5.80;4.90;;;;;;;;;;107204;1252;61133;-80
2023/06/20 08:58:49;;;;;;;7.80;5.30;;;;;;;;;;107202;1253;61247;-81
2023/06/20 09:01:16;;;;;;;6.10;5.30;;;;;;;;;;107186;1255;61327;-80
2023/06/20 09:03:42;;;;;;;6.00;5.40;;;;;;;;;;107356;1253;61245;-82
2023/06/20 09:06:09;;;;;;;6.80;5.30;;;;;;;;;;107299;1253;61290;-82
2023/06/20 09:08:43;;;;;;;5.90;5.30;;;;;;;;;;107269;1252;61206;-80
2023/06/20 09:11:11;;;;;;;6.90;5.80;;;;;;;;;;107240;1255;62882;-83
2023/06/20 09:13:37;;;;;;;5.90;5.30;;;;;;;;;;107253;1255;61350;-81
2023/06/20 09:16:07;;;;;;;6.60;5.60;;;;;;;;;;107284;1253;61218;-81
2023/06/20 09:18:34;;;;;;;8.10;5.80;;;;;;;;;;107138;1252;61260;-84
2023/06/20 09:21:01;;;;;;;10.20;5.40;;;;;;;;;;107155;1253;61242;-84
2023/06/20 09:23:31;;;;;;;7.10;5.40;;;;;;;;;;107266;1255;62851;-83
2023/06/20 09:26:14;;;;;;;7.60;5.50;;;;;;;;;;107284;1253;61235;-83
2023/06/20 09:28:41;;;;;;;10.00;5.50;;;;;;;;;;107348;1253;61257;-81
2023/06/20 09:31:07;;;;;;;5.30;4.80;;;;;;;;;;107212;1253;60974;-81
2023/06/20 09:33:37;;;;;;;7.00;4.80;;;;;;;;;;107140;1254;60284;-83
2023/06/20 09:36:16;;;;;;;7.80;5.40;;;;;;;;;;107081;1253;63144;-83
2023/06/20 09:38:43;;;;;;;6.70;5.20;;;;;;;;;;107249;1251;61564;-81
2023/06/20 09:41:13;;;;;;;6.10;5.50;;;;;;;;;;107275;1253;59706;-81
2023/06/20 09:43:39;;;;;;;7.10;5.20;;;;;;;;;;107279;1253;61208;-81
2023/06/20 09:46:06;;;;;;;6.20;5.40;;;;;;;;;;108501;1252;61278;-81
2023/06/20 09:48:32;;;;;;;6.60;5.70;;;;;;;;;;107214;1250;61103;-81
2023/06/20 09:50:59;;;;;;;7.30;5.50;;;;;;;;;;107363;1253;61141;-84
2023/06/20 09:53:26;;;;;;;5.50;5.00;;;;;;;;;;107072;1253;61273;-81
2023/06/20 09:55:53;;;;;;;5.60;5.10;;;;;;;;;;107420;1253;61112;-82
2023/06/20 09:58:20;;;;;;;12.70;5.60;;;;;;;;;;107178;1253;61091;-83
2023/06/20 10:00:46;;;;;;;6.10;5.40;;;;;;;;;;107579;1250;61260;-82
2023/06/20 10:03:12;;;;;;;7.30;5.30;;;;;;;;;;107335;1253;61244;-81
2023/06/20 10:05:39;;;;;;;5.70;5.20;;;;;;;;;;107416;1253;61330;-84
2023/06/20 10:08:06;;;;;;;5.90;5.30;;;;;;;;;;107240;1253;59595;-85
2023/06/20 10:10:32;;;;;;;6.20;5.60;;;;;;;;;;107284;1251;61214;-81
2023/06/20 10:12:58;;;;;;;6.00;5.00;;;;;;;;;;107443;1255;59232;-81
2023/06/20 10:15:25;;;;;;;7.00;5.70;;;;;;;;;;107416;1252;61263;-84
2023/06/20 10:17:51;;;;;;;8.90;5.00;;;;;;;;;;107317;1253;61030;-84
2023/06/20 10:20:24;;;;;;;5.50;4.80;;;;;;;;;;107315;1252;61335;-81
2023/06/20 10:22:50;;;;;;;5.10;4.70;;;;;;;;;;107404;1251;59533;-82
2023/06/20 10:25:18;;;;;;;5.60;4.90;;;;;;;;;;107439;1253;59278;-85
2023/06/20 10:27:53;;;;;;;5.10;4.60;;;;;;;;;;107369;1252;61328;-85
2023/06/20 10:30:43;;;;;;;5.30;4.80;;;;;;;;;;107877;1253;61036;-84
2023/06/20 10:33:10;;;;;;;6.90;5.20;;;;;;;;;;109399;1251;58947;-84
2023/06/20 10:35:49;;;;;;;6.80;5.10;;;;;;;;;;109449;1251;59206;-82
2023/06/20 10:38:15;;;;;;;5.70;5.20;;;;;;;;;;108899;1252;61463;-85
2023/06/20 10:40:42;;;;;;;5.40;4.80;;;;;;;;;;107250;1253;61023;-82
2023/06/20 10:43:18;;;;;;;7.40;5.10;;;;;;;;;;107215;1252;61226;-84
2023/06/20 10:45:53;;;;;;;8.20;5.30;;;;;;;;;;107101;1252;61294;-84
2023/06/20 10:51:52;;;;;;;7.00;5.00;;;;;;;;;;109093;1252;61818;-83
2023/06/20 10:54:22;;;;;;;8.00;4.90;;;;;;;;;;109430;1252;58933;-85
2023/06/20 10:56:48;;;;;;;6.20;4.90;;;;;;;;;;109494;1252;59524;-85
2023/06/20 10:59:18;;;;;;;5.80;5.20;;;;;;;;;;107907;1254;59882;-83
2023/06/20 11:01:45;;;;;;;6.10;5.10;;;;;;;;;;107277;1251;61259;-81
2023/06/20 11:04:12;;;;;;;5.70;5.10;;;;;;;;;;107412;1253;61805;-81
2023/06/20 11:06:38;;;;;;;6.90;5.70;;;;;;;;;;107294;1251;62092;-84
2023/06/20 11:09:04;;;;;;;5.30;4.80;;;;;;;;;;107160;1251;59100;-84
2023/06/20 11:11:31;;;;;;;6.60;5.90;;;;;;;;;;107393;1251;61286;-81
2023/06/20 11:14:08;;;;;;;6.10;5.50;;;;;;;;;;107472;1251;61324;-83
2023/06/20 11:16:34;;;;;;;7.00;5.60;;;;;;;;;;107300;1255;62921;-81
2023/06/20 11:19:01;;;;;;;6.90;6.20;;;;;;;;;;107179;1253;61268;-81
2023/06/20 11:21:27;;;;;;;6.90;5.00;;;;;;;;;;107271;1252;61221;-84
2023/06/20 11:24:00;;;;;;;6.40;5.20;;;;;;;;;;107531;1253;61299;-81
2023/06/20 11:26:31;;;;;;;5.90;4.90;;;;;;;;;;107291;1252;61172;-82
2023/06/20 11:28:58;;;;;;;6.20;5.50;;;;;;;;;;107183;1253;63055;-82
2023/06/20 11:31:25;;;;;;;6.60;5.90;;;;;;;;;;107273;1253;61178;-82
2023/06/20 11:34:07;;;;;;;5.90;5.10;;;;;;;;;;107326;1253;59708;-82
2023/06/20 11:36:33;;;;;;;6.10;5.30;;;;;;;;;;107383;1251;61096;-84
2023/06/20 11:39:04;;;;;;;7.10;5.80;;;;;;;;;;107275;1253;60336;-82
2023/06/20 11:41:31;;;;;;;5.60;5.00;;;;;;;;;;107184;1252;61910;-84
2023/06/20 11:43:57;;;;;;;5.90;5.20;;;;;;;;;;107401;1252;59493;-85
2023/06/20 11:46:24;;;;;;;5.70;5.20;;;;;;;;;;108183;1252;59312;-83
2023/06/20 11:48:51;;;;;;;6.90;5.00;;;;;;;;;;108994;1251;61308;-85
2023/06/20 11:51:26;;;;;;;5.90;5.40;;;;;;;;;;107260;1252;60603;-85
2023/06/20 11:54:09;;;;;;;6.10;5.40;;;;;;;;;;107242;1253;63245;-82
2023/06/20 11:56:35;;;;;;;5.50;5.00;;;;;;;;;;107344;1251;61184;-84
2023/06/20 11:59:02;;;;;;;7.00;4.80;;;;;;;;;;107156;1251;61256;-84
2023/06/20 12:01:30;;;;;;;6.30;5.60;;;;;;;;;;107089;1253;61218;-85
2023/06/20 12:04:03;;;;;;;9.00;5.30;;;;;;;;;;107356;1253;59401;-84
2023/06/20 12:06:30;;;;;;;5.90;5.40;;;;;;;;;;107258;1252;62393;-84
2023/06/20 12:09:00;;;;;;;5.40;4.90;;;;;;;;;;107165;1254;61248;-84
2023/06/20 12:11:27;;;;;;;6.20;5.60;;;;;;;;;;107196;1252;61221;-82
2023/06/20 12:13:53;;;;;;;8.30;5.50;;;;;;;;;;107341;1252;61262;-82
2023/06/20 12:16:20;;;;;;;6.10;5.60;;;;;;;;;;107309;1253;61318;-82
2023/06/20 12:18:49;;;;;;;9.50;5.10;;;;;;;;;;107194;1255;62328;-82
2023/06/20 12:21:16;;;;;;;7.40;5.60;;;;;;;;;;107317;1253;61250;-82
2023/06/20 12:23:42;;;;;;;10.20;5.90;;;;;;;;;;107346;1253;61084;-83
2023/06/20 12:26:08;;;;;;;8.40;5.00;;;;;;;;;;106993;1253;61329;-84
2023/06/20 12:28:36;;;;;;;10.80;5.80;;;;;;;;;;106938;1253;61259;-84
2023/06/20 12:31:03;;;;;;;5.80;5.00;;;;;;;;;;106968;1253;61909;-84
2023/06/20 12:33:30;;;;;;;10.40;5.40;;;;;;;;;;107093;1251;61252;-84
2023/06/20 12:35:58;;;;;;;8.10;5.60;;;;;;;;;;107056;1254;61224;-81
2023/06/20 12:38:30;;;;;;;8.20;5.60;;;;;;;;;;106857;1250;61957;-81
2023/06/20 12:40:57;;;;;;;7.00;5.10;;;;;;;;;;107081;1252;61180;-83
2023/06/20 12:43:24;;;;;;;9.60;6.60;;;;;;;;;;107074;1252;62839;-84
2023/06/20 12:45:52;;;;;;;10.20;6.00;;;;;;;;;;107035;1252;59635;-81
2023/06/20 12:48:18;;;;;;;11.40;5.40;;;;;;;;;;106839;1252;61373;-81
2023/06/20 12:50:45;;;;;;;6.10;5.50;;;;;;;;;;107026;1254;61339;-81
2023/06/20 12:53:11;;;;;;;7.40;5.60;;;;;;;;;;106955;1253;61310;-81
2023/06/20 12:55:37;;;;;;;8.50;5.40;;;;;;;;;;107118;1251;61557;-84
2023/06/20 12:58:04;;;;;;;6.90;5.80;;;;;;;;;;106909;1251;61313;-81
2023/06/20 13:00:30;;;;;;;8.20;5.80;;;;;;;;;;106741;1253;61394;-84
2023/06/20 13:02:57;;;;;;;10.80;5.50;;;;;;;;;;106935;1251;61257;-84
2023/06/20 13:05:23;;;;;;;6.70;5.80;;;;;;;;;;107097;1251;61264;-85
2023/06/20 13:07:50;;;;;;;5.50;5.00;;;;;;;;;;107141;1253;61744;-84
2023/06/20 13:10:18;;;;;;;6.70;5.60;;;;;;;;;;107183;1253;61363;-84
2023/06/20 13:12:45;;;;;;;9.70;4.80;;;;;;;;;;107199;1253;61232;-82
2023/06/20 13:15:13;;;;;;;7.10;5.70;;;;;;;;;;107099;1253;61329;-84
2023/06/20 13:17:40;;;;;;;9.10;5.60;;;;;;;;;;106844;1253;61229;-84
2023/06/20 13:20:07;;;;;;;11.80;6.20;;;;;;;;;;106875;1256;61242;-82
2023/06/20 13:22:33;;;;;;;9.10;5.50;;;;;;;;;;107024;1251;61137;-84
2023/06/20 13:25:00;;;;;;;6.10;5.50;;;;;;;;;;107076;1251;61255;-84
2023/06/20 13:27:26;;;;;;;6.80;6.00;;;;;;;;;;106773;1252;61738;-81
2023/06/20 13:29:56;;;;;;;7.00;5.40;;;;;;;;;;106787;1253;61216;-84
2023/06/20 13:32:22;;;;;;;7.30;5.90;;;;;;;;;;106891;1251;63056;-84
2023/06/20 13:34:49;;;;;;;7.60;5.50;;;;;;;;;;106961;1255;61112;-84
2023/06/20 13:37:15;;;;;;;7.80;5.30;;;;;;;;;;106902;1255;61249;-84
2023/06/20 13:39:43;;;;;;;6.90;6.10;;;;;;;;;;106769;1253;61259;-83
2023/06/20 13:42:10;;;;;;;10.40;6.00;;;;;;;;;;107041;1251;61261;-81
2023/06/20 13:44:36;;;;;;;6.40;5.40;;;;;;;;;;106907;1257;61231;-84
2023/06/20 13:47:02;;;;;;;9.50;5.90;;;;;;;;;;106906;1253;61237;-81
2023/06/20 13:49:29;;;;;;;7.50;5.90;;;;;;;;;;106855;1251;59193;-84
2023/06/20 13:51:55;;;;;;;6.90;6.30;;;;;;;;;;106942;1253;61318;-81
2023/06/20 13:54:22;;;;;;;7.30;6.40;;;;;;;;;;106977;1251;61952;-81
2023/06/20 13:56:48;;;;;;;7.30;5.50;;;;;;;;;;107225;1252;61096;-81
2023/06/20 13:59:15;;;;;;;6.70;6.00;;;;;;;;;;106932;1253;61261;-81
2023/06/20 14:01:41;;;;;;;11.70;6.20;;;;;;;;;;107061;1251;61464;-85
2023/06/20 14:04:08;;;;;;;8.00;6.20;;;;;;;;;;106985;1253;61412;-84
2023/06/20 14:06:34;;;;;;;6.30;5.80;;;;;;;;;;106904;1253;60983;-81
2023/06/20 14:09:00;;;;;;;6.60;5.60;;;;;;;;;;106831;1252;61192;-82
2023/06/20 14:11:27;;;;;;;7.90;5.70;;;;;;;;;;106841;1252;61283;-84
2023/06/20 14:13:53;;;;;;;5.80;5.30;;;;;;;;;;106865;1253;62305;-84
2023/06/20 14:16:21;;;;;;;10.30;6.00;;;;;;;;;;106724;1252;61311;-82
2023/06/20 14:18:47;;;;;;;;;;;;;;;;;;106702;1255;61149;-82
2023/06/20 14:21:13;;;;;;;9.00;5.10;;;;;;;;;;107170;1253;61166;-81
2023/06/20 14:23:40;;;;;;;9.70;5.90;;;;;;;;;;107041;1253;61420;-81
2023/06/20 14:26:06;;;;;;;11.20;6.00;;;;;;;;;;107218;1253;62453;-82
2023/06/20 14:28:32;;;;;;;7.50;6.50;;;;;;;;;;107213;1255;59495;-84
2023/06/20 14:30:59;;;;;;;8.90;6.90;;;;;;;;;;107221;1253;59724;-82